Terminal Aerodrome Forecast
Issued by NWS Sioux Falls, SD

Home | Current Version | Previous Version | Text Only | Print | Product List | Glossary On
Versions: 1 2 3 4 5 6 7 8 9 10 11 12 13 14 15
715
FTUS43 KFSD 230956 AAB
TAFHON
TAF AMD
KHON 230956Z 2310/2406 09008KT P6SM SCT020 BKN150
      TEMPO 2310/2311 19014G22KT 3SM TSRA OVC020CB
     FM231100 12008KT P6SM SCT015 BKN090
      TEMPO 2311/2313 BKN015
     FM231500 15009KT P6SM BKN250
     FM231800 20008KT P6SM FEW040 SCT130
     FM232100 29015G21KT P6SM FEW040 SCT120
     FM240100 32008KT P6SM FEW200=

USA.gov is the U.S. government's official web portal to all federal, state and local government web resources and services.